Time;durP1;ratioP1;P1;durP2;ratioP2;P2;SDS_P1;SDS_P2;PMS_P1;PMS_P2;Temp;Humidity;BMP_temperature;BMP_pressure;BME280_temperature;BME280_humidity;BME280_pressure;Samples;Min_cycle;Max_cycle;Signal;HPM_P1;HPM_P2
2023/03/19 00:00:54;;;;;;;114.68;65.47;;;;;;;20.08;65.03;98598.03;4986927;28;20056;-57
2023/03/19 00:03:43;;;;;;;111.95;64.05;;;;;;;20.05;64.85;98596.66;4979684;28;20054;-57
2023/03/19 00:06:26;;;;;;;114.00;62.13;;;;;;;20.07;64.83;98599.91;4989127;28;20054;-56
2023/03/19 00:09:15;;;;;;;107.78;61.08;;;;;;;20.13;64.82;98598.09;4993522;28;20038;-58
2023/03/19 00:12:04;;;;;;;102.88;56.58;;;;;;;20.16;64.36;98589.50;5006458;28;20057;-56
2023/03/19 00:14:53;;;;;;;97.22;55.40;;;;;;;20.09;64.23;98587.00;4995629;28;20039;-55
2023/03/19 00:17:42;;;;;;;93.22;52.33;;;;;;;20.06;64.16;98581.34;4996761;28;20904;-57
2023/03/19 00:20:40;;;;;;;86.38;49.28;;;;;;;20.05;64.19;98575.16;4982663;28;20529;-56
2023/03/19 00:23:16;;;;;;;81.45;46.63;;;;;;;20.11;64.32;98579.50;4985847;28;20078;-57
2023/03/19 00:26:06;;;;;;;74.65;43.08;;;;;;;20.11;63.76;98574.13;4997024;28;20046;-54
2023/03/19 00:28:55;;;;;;;75.22;42.30;;;;;;;20.13;63.70;98587.34;4969036;28;20054;-56
2023/03/19 00:31:37;;;;;;;68.25;40.80;;;;;;;20.16;63.71;98584.94;4967342;28;20074;-56
2023/03/19 00:34:27;;;;;;;67.95;37.65;;;;;;;20.14;63.42;98579.00;4971631;28;20144;-55
2023/03/19 00:37:10;;;;;;;63.25;36.10;;;;;;;20.16;63.45;98579.56;4968814;28;20053;-59
2023/03/19 00:39:59;;;;;;;57.08;33.58;;;;;;;20.15;63.12;98575.25;4969404;28;20050;-57
2023/03/19 00:42:54;;;;;;;53.30;32.33;;;;;;;20.16;63.20;98576.88;4986381;28;20046;-56
2023/03/19 00:45:30;;;;;;;52.38;29.65;;;;;;;20.15;63.04;98572.53;4986328;28;20066;-57
2023/03/19 00:48:26;;;;;;;46.88;27.52;;;;;;;20.10;63.08;98577.06;4979226;28;20113;-58
2023/03/19 00:51:10;;;;;;;42.78;27.42;;;;;;;20.02;63.09;98574.84;4955446;28;20053;-57
2023/03/19 00:53:59;;;;;;;40.10;24.98;;;;;;;20.03;63.12;98587.25;4966254;28;20050;-57
2023/03/19 00:56:41;;;;;;;39.55;24.52;;;;;;;20.03;63.13;98579.19;4985141;28;20121;-55
2023/03/19 00:59:33;;;;;;;40.95;23.48;;;;;;;20.04;63.07;98589.69;4968723;28;20050;-55
2023/03/19 01:02:16;;;;;;;36.05;21.40;;;;;;;20.02;62.88;98594.50;4967211;28;20073;-55
2023/03/19 01:05:05;;;;;;;34.63;20.33;;;;;;;20.03;62.94;98598.81;4986087;28;20046;-56
2023/03/19 01:07:47;;;;;;;35.63;21.17;;;;;;;20.06;63.10;98600.16;4985340;28;20533;-56
2023/03/19 01:10:39;;;;;;;33.85;20.13;;;;;;;20.02;62.69;98609.81;4985971;28;20564;-55
2023/03/19 01:13:28;;;;;;;32.92;19.05;;;;;;;19.99;63.05;98607.63;4967939;28;20058;-57
2023/03/19 01:16:18;;;;;;;31.60;19.83;;;;;;;19.98;62.85;98614.06;4967926;28;20497;-58
2023/03/19 01:19:07;;;;;;;27.17;17.90;;;;;;;19.96;62.87;98608.16;4968074;28;20125;-56
2023/03/19 01:21:56;;;;;;;31.80;20.58;;;;;;;19.97;62.91;98609.75;4988413;28;20128;-56
2023/03/19 01:24:48;;;;;;;28.42;18.33;;;;;;;19.94;63.09;98613.78;4968023;28;20442;-55
2023/03/19 01:27:37;;;;;;;32.15;18.58;;;;;;;19.97;62.97;98615.94;4968305;28;20476;-57
2023/03/19 01:30:33;;;;;;;27.65;17.55;;;;;;;19.93;62.97;98624.78;4967898;28;20165;-56
2023/03/19 01:33:30;;;;;;;26.00;16.85;;;;;;;20.01;62.96;98625.13;4984402;28;20046;-56
2023/03/19 01:36:28;;;;;;;28.83;16.85;;;;;;;19.96;63.01;98624.28;4968089;28;20193;-56
2023/03/19 01:39:12;;;;;;;29.33;17.80;;;;;;;19.94;62.99;98623.72;4985012;28;20054;-56
2023/03/19 01:42:03;;;;;;;31.02;18.10;;;;;;;19.98;63.08;98633.72;4970937;28;20061;-56
2023/03/19 01:45:02;;;;;;;31.02;18.38;;;;;;;20.01;nan;98633.19;4968259;28;20054;-54
2023/03/19 01:48:25;;;;;;;42.28;19.98;;;;;;;20.09;62.89;98642.69;4976699;28;20441;-56
2023/03/19 01:51:43;;;;;;;33.08;18.17;;;;;;;20.11;62.98;98632.47;4967851;28;20085;-58
2023/03/19 01:54:46;;;;;;;30.40;19.00;;;;;;;20.07;62.92;98628.69;4958729;28;20066;-55
2023/03/19 01:58:05;;;;;;;31.00;18.92;;;;;;;20.08;62.92;98643.75;4911112;28;20051;-55
2023/03/19 02:01:19;;;;;;;;;;;;;;;20.25;62.71;98649.81;4968029;28;20748;-54
2023/03/19 02:04:02;;;;;;;31.20;19.60;;;;;;;20.21;62.75;98643.34;4968079;28;20645;-58
2023/03/19 02:06:55;;;;;;;32.17;18.88;;;;;;;20.26;62.62;98640.69;4967082;28;20050;-60
2023/03/19 02:09:39;;;;;;;27.83;17.95;;;;;;;20.36;62.38;98648.03;4965975;28;20082;-56
2023/03/19 02:12:28;;;;;;;28.95;18.25;;;;;;;20.49;61.95;98651.09;4957821;28;20054;-57
2023/03/19 02:15:11;;;;;;;29.70;18.77;;;;;;;20.71;61.46;98658.28;4985272;28;20086;-55
2023/03/19 02:18:07;;;;;;;30.77;20.02;;;;;;;21.18;60.14;98663.69;4985544;28;20141;-56
2023/03/19 02:20:49;;;;;;;29.13;18.27;;;;;;;21.64;59.05;98668.19;4967945;28;20054;-52
2023/03/19 02:23:46;;;;;;;29.10;18.88;;;;;;;22.09;57.60;98664.00;4952495;28;20423;-55
2023/03/19 02:26:47;;;;;;;33.75;18.48;;;;;;;22.31;55.97;98667.28;4983484;28;20050;-58
2023/03/19 02:29:44;;;;;;;28.08;18.05;;;;;;;22.37;55.65;98677.81;4967718;28;20066;-54
2023/03/19 02:32:23;;;;;;;27.43;16.63;;;;;;;22.33;55.77;98687.53;4967707;28;20051;-58
2023/03/19 02:35:12;;;;;;;26.05;16.30;;;;;;;22.43;55.68;98692.13;4971005;28;20038;-55
2023/03/19 02:37:54;;;;;;;21.48;14.38;;;;;;;22.81;54.72;98686.19;4988854;28;20061;-55
2023/03/19 02:40:58;;;;;;;20.50;13.75;;;;;;;23.49;53.05;98691.19;4968908;28;20043;-55
2023/03/19 02:43:50;;;;;;;23.30;13.50;;;;;;;23.43;52.58;98693.06;4969564;28;20074;-56
2023/03/19 02:46:32;;;;;;;23.27;14.20;;;;;;;23.07;53.40;98696.94;4968366;28;20059;-57
2023/03/19 02:49:23;;;;;;;21.77;13.95;;;;;;;22.91;54.01;98696.19;4968823;28;20498;-56
2023/03/19 02:52:05;;;;;;;23.45;12.93;;;;;;;22.95;54.09;98699.16;4976752;28;20066;-55
2023/03/19 02:54:55;;;;;;;22.95;14.48;;;;;;;23.18;53.90;98710.19;4988823;28;20438;-56
2023/03/19 02:57:31;;;;;;;22.85;14.57;;;;;;;23.18;53.54;98710.19;4988417;28;20046;-57
2023/03/19 03:00:19;;;;;;;23.08;15.45;;;;;;;23.14;53.61;98713.72;4987781;28;20402;-58
2023/03/19 03:03:11;;;;;;;24.38;15.43;;;;;;;22.95;53.86;98713.47;4969401;28;20057;-56
2023/03/19 03:06:00;;;;;;;25.55;14.40;;;;;;;22.45;55.09;98716.94;4987829;28;20433;-55
2023/03/19 03:08:50;;;;;;;26.05;15.85;;;;;;;22.48;55.13;98707.50;4970030;28;20054;-55
2023/03/19 03:11:33;;;;;;;24.42;15.40;;;;;;;22.36;55.55;98707.75;4970632;28;20057;-56
2023/03/19 03:14:23;;;;;;;26.05;15.80;;;;;;;22.40;55.77;98716.94;4967979;28;20062;-56
2023/03/19 03:17:07;;;;;;;24.98;15.85;;;;;;;22.30;56.15;98725.03;4972495;28;20050;-54
2023/03/19 03:19:56;;;;;;;27.95;16.65;;;;;;;22.32;55.94;98723.69;4987085;28;20433;-56
2023/03/19 03:22:40;;;;;;;26.88;16.73;;;;;;;22.53;55.72;98723.69;4986716;28;20050;-58
2023/03/19 03:25:29;;;;;;;33.95;18.35;;;;;;;22.37;55.81;98721.00;4987256;28;20403;-55
2023/03/19 03:28:25;;;;;;;29.08;17.60;;;;;;;22.46;56.07;98718.56;4986539;28;20156;-54
2023/03/19 03:31:02;;;;;;;28.13;18.17;;;;;;;22.53;56.01;98718.28;4986567;28;20050;-57
2023/03/19 03:33:51;;;;;;;27.60;18.55;;;;;;;22.58;56.17;98723.69;4988130;28;20077;-58
2023/03/19 03:36:34;;;;;;;29.15;18.17;;;;;;;22.66;56.43;98728.59;4987416;28;20057;-58
2023/03/19 03:39:18;;;;;;;35.72;18.25;;;;;;;22.78;55.47;98726.44;4987106;28;20054;-56
2023/03/19 03:42:15;;;;;;;28.00;18.45;;;;;;;23.00;55.53;98720.75;5001630;28;20057;-56
2023/03/19 03:44:51;;;;;;;26.00;17.27;;;;;;;23.12;55.11;98730.19;4969749;28;20105;-58
2023/03/19 03:47:43;;;;;;;26.60;15.50;;;;;;;23.19;54.51;98728.00;4975219;28;20099;-56
2023/03/19 03:50:25;;;;;;;21.25;15.40;;;;;;;23.05;54.46;98732.38;4993112;28;20465;-56
2023/03/19 03:53:18;;;;;;;23.02;15.40;;;;;;;23.21;54.48;98733.94;4969148;28;20485;-55
2023/03/19 03:56:12;;;;;;;26.65;15.77;;;;;;;23.29;54.30;98741.50;4969432;28;20049;-55
2023/03/19 03:58:55;;;;;;;22.65;15.50;;;;;;;23.24;52.16;98741.50;4970461;28;20053;-55
2023/03/19 04:01:45;;;;;;;23.00;14.75;;;;;;;23.14;55.00;98744.25;4987051;28;20054;-52
2023/03/19 04:04:30;;;;;;;29.05;15.55;;;;;;;23.18;53.82;98742.63;4969396;28;20073;-55
2023/03/19 04:07:21;;;;;;;21.90;14.20;;;;;;;23.22;53.94;98742.88;4930824;29;20051;-56
2023/03/19 04:10:04;;;;;;;22.47;14.20;;;;;;;23.27;52.22;98742.88;4957726;28;20055;-57
2023/03/19 04:12:53;;;;;;;22.80;15.18;;;;;;;23.30;53.26;98742.31;4961135;28;20046;-58
2023/03/19 04:15:38;;;;;;;20.35;14.93;;;;;;;23.51;54.21;98751.19;4969196;28;20149;-56
2023/03/19 04:18:28;;;;;;;20.25;14.80;;;;;;;23.55;54.17;98746.84;4969771;28;20058;-55
2023/03/19 04:21:10;;;;;;;24.08;13.77;;;;;;;23.60;54.52;98744.13;4969316;28;20672;-55
2023/03/19 04:24:01;;;;;;;22.83;14.73;;;;;;;23.76;54.08;98751.13;4987052;28;20124;-55
2023/03/19 04:26:45;;;;;;;21.77;15.30;;;;;;;23.71;54.19;98753.84;4965099;28;20529;-56
2023/03/19 04:29:35;;;;;;;23.83;15.30;;;;;;;23.80;53.90;98754.09;4969305;28;20133;-55
2023/03/19 04:32:25;;;;;;;24.13;15.45;;;;;;;23.62;53.94;98758.19;4968539;28;20113;-54
2023/03/19 04:35:08;;;;;;;22.70;14.38;;;;;;;23.68;52.91;98744.38;4949663;28;20097;-57
2023/03/19 04:37:57;;;;;;;22.92;14.95;;;;;;;23.87;53.77;98746.47;4964410;28;20125;-55
2023/03/19 04:40:39;;;;;;;19.48;14.73;;;;;;;23.93;54.18;98754.28;4982408;28;20061;-58
2023/03/19 04:43:29;;;;;;;19.85;14.45;;;;;;;24.22;53.80;98745.50;4963691;28;20050;-55
2023/03/19 04:46:11;;;;;;;22.40;16.00;;;;;;;24.27;53.60;98749.00;4964615;28;20046;-58
2023/03/19 04:49:00;;;;;;;16.73;13.50;;;;;;;24.25;49.50;98748.47;4952320;28;20043;-57
2023/03/19 04:51:42;;;;;;;19.90;14.15;;;;;;;24.49;52.79;98762.94;4953014;28;20729;-55
2023/03/19 04:54:31;;;;;;;20.50;14.98;;;;;;;24.60;52.57;98753.66;4978100;28;20082;-55
2023/03/19 04:57:15;;;;;;;17.90;14.07;;;;;;;24.66;52.10;98759.81;4968454;28;20050;-57
2023/03/19 05:00:13;;;;;;;22.73;15.80;;;;;;;24.52;52.03;98756.94;4969279;28;20120;-56
2023/03/19 05:02:49;;;;;;;20.60;14.68;;;;;;;24.60;50.37;98758.25;4968030;28;20129;-56
2023/03/19 05:05:38;;;;;;;21.55;14.77;;;;;;;24.70;51.57;98752.75;4985706;28;20123;-55
2023/03/19 05:08:20;;;;;;;15.73;12.18;;;;;;;24.44;46.26;98760.25;4968383;28;20405;-56
2023/03/19 05:11:09;;;;;;;11.77;10.07;;;;;;;24.49;49.21;98759.41;4968027;28;20141;-53
2023/03/19 05:14:20;;;;;;;41.60;13.18;;;;;;;25.11;49.49;98755.13;4956772;28;20057;-59
2023/03/19 05:17:31;;;;;;;19.40;11.32;;;;;;;24.81;50.10;98759.72;4954591;28;20105;-58
2023/03/19 05:20:34;;;;;;;11.25;9.38;;;;;;;24.98;46.89;98757.44;4960926;28;20557;-59
2023/03/19 05:23:26;;;;;;;15.07;10.38;;;;;;;25.39;48.92;98759.75;4971101;28;20058;-59
2023/03/19 05:26:17;;;;;;;15.73;10.23;;;;;;;24.75;45.65;98760.84;4943823;28;20050;-59
2023/03/19 05:29:29;;;;;;;15.43;11.03;;;;;;;24.90;45.52;98752.63;4967691;28;20058;-59
2023/03/19 05:32:31;;;;;;;16.13;10.93;;;;;;;25.15;47.76;98751.56;4954811;28;20759;-59
2023/03/19 05:35:19;;;;;;;14.73;11.80;;;;;;;25.24;45.91;98740.91;4954618;28;20058;-58
2023/03/19 05:38:10;;;;;;;18.75;13.07;;;;;;;25.18;44.73;98751.00;4958240;28;20050;-58
2023/03/19 05:41:05;;;;;;;14.75;12.15;;;;;;;25.62;46.16;98741.91;4953622;28;20074;-60
2023/03/19 05:44:03;;;;;;;12.75;10.57;;;;;;;26.19;46.15;98743.59;4959651;28;20042;-59
2023/03/19 05:46:58;;;;;;;17.08;12.77;;;;;;;25.26;44.89;98738.75;4974078;28;20054;-60
2023/03/19 05:49:53;;;;;;;17.23;12.80;;;;;;;25.38;48.67;98734.53;4970204;28;20053;-60
2023/03/19 05:52:37;;;;;;;18.10;12.05;;;;;;;25.86;46.32;98739.97;4955158;28;20067;-60
2023/03/19 05:55:26;;;;;;;18.75;13.77;;;;;;;25.98;47.17;98731.41;4995062;28;20042;-59
2023/03/19 05:58:12;;;;;;;18.02;13.65;;;;;;;25.98;45.00;98734.13;4993699;28;20065;-60
2023/03/19 06:01:02;;;;;;;20.50;13.70;;;;;;;25.54;44.59;98737.91;4980824;28;20124;-60
2023/03/19 06:03:44;;;;;;;18.27;13.00;;;;;;;26.09;46.00;98730.16;4993382;28;20153;-59
2023/03/19 06:06:33;;;;;;;23.92;14.40;;;;;;;25.49;44.74;98738.72;4987458;28;20159;-58
2023/03/19 06:09:15;;;;;;;22.63;15.15;;;;;;;25.67;45.39;98731.78;4990266;28;20061;-58
2023/03/19 06:12:05;;;;;;;24.67;15.45;;;;;;;25.40;46.51;98726.13;4996954;28;20049;-59
2023/03/19 06:15:00;;;;;;;20.73;13.68;;;;;;;25.81;46.94;98719.13;5002099;28;20905;-60
2023/03/19 06:17:45;;;;;;;16.17;12.90;;;;;;;26.18;45.29;98720.25;5005989;28;20119;-60
2023/03/19 06:20:40;;;;;;;17.98;13.25;;;;;;;26.26;43.49;98722.34;4982089;28;20058;-59
2023/03/19 06:23:19;;;;;;;15.90;12.60;;;;;;;26.40;46.59;98709.63;4984671;28;20445;-59
2023/03/19 06:26:16;;;;;;;15.80;11.95;;;;;;;26.34;44.42;98713.53;4989408;28;20050;-60
2023/03/19 06:28:54;;;;;;;19.85;12.00;;;;;;;26.31;46.41;98714.13;4979629;28;20120;-59
2023/03/19 06:31:51;;;;;;;18.10;11.48;;;;;;;26.52;45.04;98701.03;4994469;28;20050;-59
2023/03/19 06:34:39;;;;;;;14.50;11.70;;;;;;;26.60;47.53;98695.72;4959674;28;20050;-60
2023/03/19 06:37:29;;;;;;;15.52;11.90;;;;;;;26.58;47.74;98692.50;4981954;28;20055;-60
2023/03/19 06:40:12;;;;;;;16.77;11.52;;;;;;;26.42;44.62;98696.59;4996535;28;20053;-60
2023/03/19 06:43:08;;;;;;;13.55;11.57;;;;;;;26.16;45.35;98696.09;4988711;28;20132;-60
2023/03/19 06:45:44;;;;;;;19.25;12.00;;;;;;;25.84;44.63;98696.84;4989206;28;20523;-59
2023/03/19 06:48:40;;;;;;;13.52;11.77;;;;;;;25.94;46.49;98693.97;4975203;28;20058;-58
2023/03/19 06:51:29;;;;;;;16.42;12.63;;;;;;;25.74;46.94;98694.25;4984006;28;20765;-61
2023/03/19 06:54:18;;;;;;;19.02;12.63;;;;;;;25.98;45.00;98694.19;4984195;28;20081;-54
2023/03/19 06:57:07;;;;;;;14.50;12.40;;;;;;;25.81;49.32;98689.28;4986833;28;20086;-57
2023/03/19 06:59:49;;;;;;;15.18;12.50;;;;;;;25.94;46.60;98688.53;4985579;28;20065;-60
2023/03/19 07:02:39;;;;;;;15.95;12.25;;;;;;;25.97;49.79;98670.88;4986727;28;20632;-55
2023/03/19 07:05:21;;;;;;;15.23;12.90;;;;;;;25.77;47.90;98677.38;4987415;28;20046;-59
2023/03/19 07:08:11;;;;;;;17.45;12.07;;;;;;;26.00;48.47;98672.19;4985301;28;20054;-58
2023/03/19 07:10:53;;;;;;;16.05;12.50;;;;;;;26.33;48.51;98677.41;4985828;28;20137;-61
2023/03/19 07:13:42;;;;;;;15.88;12.15;;;;;;;26.21;44.97;98670.81;4986715;28;20066;-55
2023/03/19 07:16:24;;;;;;;17.48;13.32;;;;;;;26.01;44.38;98662.97;4975836;28;20158;-53
2023/03/19 07:19:13;;;;;;;17.10;11.85;;;;;;;26.09;49.06;98665.81;4976502;28;20054;-59
2023/03/19 07:21:56;;;;;;;16.15;13.38;;;;;;;25.92;46.82;98665.53;4984979;28;20580;-58
2023/03/19 07:24:45;;;;;;;17.90;13.63;;;;;;;25.90;47.27;98654.16;4985041;28;20093;-55
2023/03/19 07:27:27;;;;;;;15.52;12.70;;;;;;;25.86;45.43;98653.94;4987499;28;20058;-60
2023/03/19 07:30:17;;;;;;;17.13;12.25;;;;;;;25.90;45.33;98654.94;4987638;28;20065;-58
2023/03/19 07:32:59;;;;;;;17.73;12.13;;;;;;;25.69;46.45;98645.50;4970225;28;20504;-62
2023/03/19 07:35:48;;;;;;;19.17;14.82;;;;;;;25.54;45.53;98634.81;4986952;28;20061;-61
2023/03/19 07:38:30;;;;;;;21.55;14.82;;;;;;;25.43;45.63;98630.63;4983971;28;20133;-59
2023/03/19 07:41:19;;;;;;;17.30;13.63;;;;;;;25.42;48.28;98623.56;4985533;28;20104;-58
2023/03/19 07:44:01;;;;;;;17.30;13.23;;;;;;;25.50;48.09;98612.06;4984599;28;20112;-57
2023/03/19 07:46:50;;;;;;;18.23;13.82;;;;;;;25.30;46.94;98610.44;4986955;28;20141;-55
2023/03/19 07:49:32;;;;;;;17.98;13.63;;;;;;;25.39;45.94;98610.59;4986164;28;20054;-57
2023/03/19 07:52:27;;;;;;;19.63;13.70;;;;;;;25.59;47.79;98613.06;4988899;28;20050;-55
2023/03/19 07:55:23;;;;;;;16.80;13.25;;;;;;;25.57;48.54;98598.19;4986834;28;20053;-56
2023/03/19 07:57:59;;;;;;;15.13;13.23;;;;;;;25.57;47.33;98596.28;4987068;28;20050;-59
2023/03/19 08:00:48;;;;;;;19.23;14.20;;;;;;;25.49;47.13;98596.91;4988044;28;20054;-59
2023/03/19 08:03:30;;;;;;;18.33;14.80;;;;;;;25.35;48.13;98580.56;4983760;28;20141;-58
2023/03/19 08:06:26;;;;;;;17.73;14.52;;;;;;;25.50;47.29;98576.81;4986518;28;20073;-59
2023/03/19 08:09:03;;;;;;;23.45;16.85;;;;;;;25.52;47.08;98581.94;4982396;28;20058;-62
2023/03/19 08:11:52;;;;;;;22.67;15.20;;;;;;;24.89;46.88;98569.47;4984274;28;20046;-64
2023/03/19 08:14:34;;;;;;;18.60;15.55;;;;;;;25.11;47.17;98562.69;4982409;28;20046;-59
2023/03/19 08:17:33;;;;;;;19.15;16.08;;;;;;;25.15;46.80;98552.88;4977598;28;20046;-61
2023/03/19 08:20:12;;;;;;;16.90;14.55;;;;;;;25.18;45.96;98552.31;4991176;28;20068;-60
2023/03/19 08:23:08;;;;;;;20.20;16.52;;;;;;;25.08;47.04;98547.03;4986178;28;20442;-57
2023/03/19 08:25:44;;;;;;;35.08;21.33;;;;;;;25.56;48.18;98542.31;4984964;28;20081;-58
2023/03/19 08:28:40;;;;;;;25.75;17.83;;;;;;;25.76;48.21;98536.59;4978559;28;20077;-59
2023/03/19 08:31:16;;;;;;;20.15;15.77;;;;;;;25.84;47.92;98535.94;4983127;28;20058;-61
2023/03/19 08:34:10;;;;;;;18.75;15.27;;;;;;;25.55;47.74;98525.25;4985641;28;20056;-57
2023/03/19 08:36:46;;;;;;;17.05;15.25;;;;;;;25.38;47.16;98527.63;4985473;28;20355;-59
2023/03/19 08:39:34;;;;;;;23.83;15.60;;;;;;;25.42;48.24;98517.81;4984699;28;20522;-59
2023/03/19 08:42:24;;;;;;;32.15;16.63;;;;;;;25.49;49.88;98513.63;4982611;28;20057;-60
2023/03/19 08:45:07;;;;;;;17.65;15.77;;;;;;;25.34;48.71;98505.72;4975313;28;20074;-61
2023/03/19 08:47:57;;;;;;;17.70;14.15;;;;;;;25.03;45.66;98505.34;4983872;28;20057;-59
2023/03/19 08:50:46;;;;;;;18.65;13.70;;;;;;;25.11;46.66;98500.34;4977522;28;20588;-62
2023/03/19 08:53:42;;;;;;;15.00;13.43;;;;;;;25.15;47.22;98488.63;4964124;28;20283;-63
2023/03/19 08:56:37;;;;;;;19.05;14.30;;;;;;;25.08;46.96;98488.22;4964117;28;20055;-60
2023/03/19 08:59:16;;;;;;;15.10;13.50;;;;;;;24.91;47.73;98485.19;4965010;28;20054;-60
2023/03/19 09:02:06;;;;;;;17.60;14.65;;;;;;;24.91;47.25;98477.88;4964401;28;20055;-61
2023/03/19 09:04:54;;;;;;;15.00;13.40;;;;;;;25.02;48.39;98464.97;4966068;28;20086;-62
2023/03/19 09:07:36;;;;;;;18.10;13.60;;;;;;;25.25;49.72;98471.44;4957186;28;20403;-66
2023/03/19 09:10:25;;;;;;;17.77;14.77;;;;;;;25.26;48.89;98459.50;4965686;28;20055;-61
2023/03/19 09:13:11;;;;;;;19.88;15.35;;;;;;;25.07;49.07;98451.34;4966472;28;20118;-60
2023/03/19 09:16:00;;;;;;;18.75;14.20;;;;;;;25.08;47.71;98446.75;4968027;28;20059;-60
2023/03/19 09:18:42;;;;;;;18.42;14.88;;;;;;;25.19;48.33;98437.34;4962161;28;20137;-61
2023/03/19 09:21:31;;;;;;;22.13;15.00;;;;;;;25.19;47.75;98434.63;4956508;28;20466;-60
2023/03/19 09:24:13;;;;;;;19.17;14.75;;;;;;;25.19;46.48;98437.34;4963711;28;20145;-58
2023/03/19 09:27:02;;;;;;;21.05;15.10;;;;;;;25.35;47.64;98417.06;4963146;28;20058;-58
2023/03/19 09:29:44;;;;;;;17.90;14.50;;;;;;;25.56;48.14;98415.66;4965990;28;20066;-58
2023/03/19 09:32:33;;;;;;;19.88;13.68;;;;;;;25.66;49.27;98406.53;4957283;28;20050;-59
2023/03/19 09:35:15;;;;;;;19.27;15.10;;;;;;;25.56;49.01;98406.72;4964266;28;20051;-61
2023/03/19 09:38:05;;;;;;;22.80;14.70;;;;;;;25.33;46.08;98400.28;4965834;28;20506;-60
2023/03/19 09:41:00;;;;;;;20.63;14.75;;;;;;;25.24;46.89;98394.72;4957075;28;20747;-63
2023/03/19 09:44:03;;;;;;;18.25;14.70;;;;;;;25.12;47.48;98401.69;4959706;28;20050;-64
2023/03/19 09:46:53;;;;;;;18.65;14.30;;;;;;;25.24;49.36;98392.00;4952696;28;20595;-59
2023/03/19 09:49:49;;;;;;;17.60;14.23;;;;;;;25.34;49.17;98385.63;4956693;28;20046;-60
2023/03/19 09:52:40;;;;;;;19.88;14.32;;;;;;;25.26;47.79;98378.16;4966885;28;20065;-63
2023/03/19 09:55:47;;;;;;;21.40;14.25;;;;;;;25.37;48.97;98376.88;4965174;28;20051;-61
2023/03/19 09:58:34;;;;;;;17.83;14.10;;;;;;;25.33;49.42;98378.56;4963811;28;20073;-60
2023/03/19 10:01:39;;;;;;;18.02;15.25;;;;;;;25.21;48.02;98372.81;4958002;28;20720;-60
2023/03/19 10:04:40;;;;;;;16.25;14.27;;;;;;;25.27;50.02;98367.00;4967797;28;20066;-65
2023/03/19 10:07:35;;;;;;;17.42;15.25;;;;;;;25.19;47.16;98358.75;4963530;28;20062;-61
2023/03/19 10:10:26;;;;;;;18.25;16.02;;;;;;;25.09;46.76;98364.34;4958350;28;20070;-60
2023/03/19 10:13:44;;;;;;;20.67;15.45;;;;;;;25.19;49.72;98359.56;4965568;28;20137;-61
2023/03/19 10:16:28;;;;;;;16.02;14.32;;;;;;;25.27;49.90;98358.88;4967564;28;20125;-57
2023/03/19 10:19:22;;;;;;;20.50;15.13;;;;;;;25.21;49.66;98360.06;4964804;28;20042;-54
2023/03/19 10:22:17;;;;;;;19.83;15.27;;;;;;;25.26;48.60;98356.47;4964491;28;20101;-59
2023/03/19 10:25:02;;;;;;;20.92;16.40;;;;;;;25.18;49.12;98357.94;4969714;28;20636;-61
2023/03/19 10:28:15;;;;;;;40.45;23.90;;;;;;;25.31;49.71;98356.41;4961959;28;20054;-61
2023/03/19 10:31:20;;;;;;;18.27;16.38;;;;;;;25.36;49.49;98353.56;4963152;28;20035;-60
2023/03/19 10:34:36;;;;;;;27.50;18.63;;;;;;;25.33;48.77;98349.56;4962940;28;20122;-60
2023/03/19 10:37:30;;;;;;;23.88;15.77;;;;;;;25.34;49.10;98344.94;4961592;28;20098;-58
2023/03/19 10:40:23;;;;;;;28.73;20.15;;;;;;;25.24;47.82;98342.41;4962982;28;20478;-58
2023/03/19 10:43:28;;;;;;;26.52;16.73;;;;;;;25.27;47.59;98333.69;4967361;28;20082;-59
2023/03/19 10:46:24;;;;;;;32.95;20.95;;;;;;;25.38;49.26;98330.50;4964259;28;20046;-61
2023/03/19 10:51:55;;;;;;;23.10;18.52;;;;;;;25.37;49.46;98320.75;4944743;28;20077;-61
2023/03/19 10:54:31;;;;;;;33.15;20.58;;;;;;;25.34;49.98;98318.66;4945992;28;20046;-62
2023/03/19 10:57:26;;;;;;;28.98;19.80;;;;;;;25.27;50.36;98320.13;4947268;28;20057;-61
2023/03/19 11:00:21;;;;;;;24.90;18.95;;;;;;;25.26;49.60;98315.81;4947688;28;20075;-61
2023/03/19 11:03:35;;;;;;;26.17;20.40;;;;;;;25.16;50.74;98314.06;4943876;29;20058;-60
2023/03/19 11:06:24;;;;;;;26.42;18.55;;;;;;;25.12;51.34;98306.84;4948466;28;20093;-59
2023/03/19 11:09:21;;;;;;;29.95;18.10;;;;;;;25.08;51.26;98313.94;4946677;28;20047;-60
2023/03/19 11:12:12;;;;;;;25.17;18.63;;;;;;;24.85;49.02;98305.59;4949592;29;20051;-57
2023/03/19 11:15:08;;;;;;;27.30;18.10;;;;;;;24.93;50.50;98310.38;4953079;28;20728;-58
2023/03/19 11:17:57;;;;;;;29.63;20.35;;;;;;;24.87;50.83;98311.53;4946157;28;20047;-60
2023/03/19 11:21:11;;;;;;;27.63;19.55;;;;;;;24.79;50.22;98316.78;4955458;28;20055;-58
2023/03/19 11:23:52;;;;;;;24.85;18.42;;;;;;;24.78;51.43;98313.31;4938971;28;20386;-59
2023/03/19 11:26:41;;;;;;;24.23;18.40;;;;;;;24.79;50.57;98314.88;4953729;28;20750;-56
2023/03/19 11:29:23;;;;;;;38.35;20.05;;;;;;;24.74;50.50;98306.06;4946425;28;20063;-61
2023/03/19 11:32:12;;;;;;;26.25;18.40;;;;;;;24.83;51.19;98304.25;4949549;28;20150;-56
2023/03/19 11:35:08;;;;;;;28.05;18.52;;;;;;;24.92;51.01;98303.34;4949788;29;20059;-58
2023/03/19 11:38:06;;;;;;;28.65;18.13;;;;;;;24.90;50.78;98302.84;4963177;28;20161;-58
2023/03/19 11:40:45;;;;;;;27.92;18.88;;;;;;;24.84;51.07;98301.28;4954384;28;20047;-58
2023/03/19 11:43:50;;;;;;;26.25;18.17;;;;;;;24.80;51.01;98302.97;4952527;28;20050;-58
2023/03/19 11:46:54;;;;;;;26.23;17.33;;;;;;;24.74;53.95;98309.53;4946759;28;20063;-60
2023/03/19 11:49:57;;;;;;;31.77;17.88;;;;;;;24.51;53.08;98299.63;4943205;28;20059;-60
2023/03/19 11:53:07;;;;;;;25.95;17.40;;;;;;;24.42;55.08;98296.75;4944102;29;20094;-59
2023/03/19 11:55:46;;;;;;;22.17;16.00;;;;;;;24.27;56.71;98298.84;4930864;29;20054;-59
2023/03/19 11:59:04;;;;;;;23.30;16.73;;;;;;;24.11;54.46;98293.63;4942950;29;20093;-58
2023/03/19 12:02:12;;;;;;;23.38;15.57;;;;;;;24.06;56.74;98296.38;4947957;28;20086;-58
2023/03/19 12:05:13;;;;;;;23.77;16.02;;;;;;;23.95;56.41;98292.19;4909568;29;20083;-58
2023/03/19 12:08:16;;;;;;;22.95;14.98;;;;;;;23.92;58.40;98306.28;4943970;29;20047;-59
2023/03/19 12:11:19;;;;;;;24.17;15.40;;;;;;;23.87;56.34;98308.25;4948484;29;20137;-58
2023/03/19 12:14:32;;;;;;;27.00;16.27;;;;;;;23.81;57.18;98298.59;4947681;29;20086;-60
2023/03/19 12:17:49;;;;;;;23.13;15.15;;;;;;;23.71;56.75;98302.22;4947830;29;20403;-59
2023/03/19 12:20:53;;;;;;;21.80;15.60;;;;;;;23.72;59.13;98296.50;4928731;29;20052;-60
2023/03/19 12:24:04;;;;;;;22.08;14.00;;;;;;;23.57;57.67;98312.09;4942791;29;20545;-60
2023/03/19 12:27:04;;;;;;;31.30;14.48;;;;;;;23.53;58.35;98305.66;4948419;29;20479;-59
2023/03/19 12:30:00;;;;;;;21.33;15.65;;;;;;;23.53;59.64;98314.56;4929060;29;20507;-59
2023/03/19 12:32:55;;;;;;;22.65;15.75;;;;;;;23.44;58.97;98307.34;4945163;29;20067;-60
2023/03/19 12:35:40;;;;;;;26.27;17.05;;;;;;;23.39;58.45;98305.47;4948427;29;20042;-59
2023/03/19 12:38:38;;;;;;;27.35;16.60;;;;;;;23.37;59.62;98306.88;4948239;29;20055;-58
2023/03/19 12:41:29;;;;;;;27.13;16.23;;;;;;;23.33;59.83;98303.91;4947429;29;20047;-60
2023/03/19 12:44:32;;;;;;;26.05;16.90;;;;;;;23.31;59.28;98310.69;4946197;29;20047;-59
2023/03/19 12:47:33;;;;;;;26.60;16.02;;;;;;;23.22;60.21;98302.41;4945845;29;20065;-59
2023/03/19 12:50:25;;;;;;;26.65;17.48;;;;;;;23.21;61.19;98303.47;4945879;29;20515;-61
2023/03/19 12:53:17;;;;;;;28.75;19.52;;;;;;;23.16;61.67;98298.94;4947807;28;20483;-59
2023/03/19 12:56:35;;;;;;;30.90;17.70;;;;;;;23.06;61.43;98309.00;4952990;28;20082;-59
2023/03/19 12:59:22;;;;;;;30.55;18.05;;;;;;;23.03;61.87;98312.28;4930501;28;20087;-56
2023/03/19 13:02:14;;;;;;;29.85;17.25;;;;;;;22.99;61.76;98314.75;4947155;28;20058;-60
2023/03/19 13:05:21;;;;;;;23.83;17.17;;;;;;;22.92;61.79;98314.28;4947387;29;20051;-60
2023/03/19 13:08:15;;;;;;;27.00;17.15;;;;;;;22.93;62.51;98309.66;4929426;29;20626;-59